Time;durP1;ratioP1;P1;durP2;ratioP2;P2;SDS_P1;SDS_P2;PMS_P1;PMS_P2;Temp;Humidity;BMP_temperature;BMP_pressure;BME280_temperature;BME280_humidity;BME280_pressure;Samples;Min_cycle;Max_cycle;Signal;HPM_P1;HPM_P2
2022/04/14 00:00:23;;;;;;;862.93;800.93;;;12.20;99.90;;;;;;5036498;28;20459;-81
2022/04/14 00:02:50;;;;;;;883.83;820.87;;;12.10;99.90;;;;;;5037555;28;20456;-81
2022/04/14 00:05:17;;;;;;;878.00;814.30;;;12.20;99.90;;;;;;5037347;28;20488;-81
2022/04/14 00:07:44;;;;;;;876.20;812.40;;;12.10;99.90;;;;;;5036823;28;20453;-81
2022/04/14 00:10:11;;;;;;;881.70;816.90;;;12.20;99.90;;;;;;5036918;28;20510;-81
2022/04/14 00:12:39;;;;;;;881.53;816.07;;;12.10;99.90;;;;;;5037780;28;20448;-81
2022/04/14 00:15:08;;;;;;;879.00;814.23;;;12.10;99.90;;;;;;5036883;28;20468;-79
2022/04/14 00:17:35;;;;;;;876.20;812.17;;;12.10;99.90;;;;;;5036789;28;20456;-81
2022/04/14 00:20:05;;;;;;;884.10;818.43;;;11.90;99.90;;;;;;5036952;28;20542;-81
2022/04/14 00:22:31;;;;;;;877.00;811.13;;;11.90;99.90;;;;;;5036972;28;20456;-83
2022/04/14 00:24:58;;;;;;;879.43;812.13;;;11.90;99.90;;;;;;5036998;28;20985;-83
2022/04/14 00:27:25;;;;;;;898.40;830.93;;;11.90;99.90;;;;;;5036885;28;20462;-83
2022/04/14 00:29:52;;;;;;;897.70;829.60;;;11.90;99.90;;;;;;5036015;28;20452;-83
2022/04/14 00:32:20;;;;;;;912.17;841.97;;;11.80;99.90;;;;;;5037184;28;20463;-83
2022/04/14 00:34:47;;;;;;;887.33;815.10;;;11.80;99.90;;;;;;5036664;28;21015;-83
2022/04/14 00:37:17;;;;;;;893.13;820.40;;;11.80;99.90;;;;;;5036982;28;20458;-83
2022/04/14 00:39:44;;;;;;;895.97;823.23;;;11.80;99.90;;;;;;5035942;28;20487;-83
2022/04/14 00:42:11;;;;;;;893.13;820.87;;;11.80;99.90;;;;;;5036887;28;20849;-82
2022/04/14 00:44:38;;;;;;;888.63;816.87;;;11.80;99.90;;;;;;5036960;28;20479;-83
2022/04/14 00:47:06;;;;;;;913.90;838.40;;;11.80;99.90;;;;;;5037070;28;20456;-82
2022/04/14 00:49:35;;;;;;;911.37;835.70;;;11.70;99.90;;;;;;5036349;28;20449;-82
2022/04/14 00:52:02;;;;;;;907.67;831.67;;;11.80;99.90;;;;;;5036362;28;20464;-83
2022/04/14 00:54:30;;;;;;;910.63;833.43;;;11.80;99.90;;;;;;5036285;28;20468;-83
2022/04/14 00:56:57;;;;;;;914.67;839.00;;;11.80;99.90;;;;;;5036547;28;20816;-82
2022/04/14 00:59:24;;;;;;;920.80;844.53;;;11.80;99.90;;;;;;5035448;28;20448;-83
2022/04/14 01:01:51;;;;;;;916.53;839.77;;;11.70;99.90;;;;;;5036713;28;20463;-83
2022/04/14 01:04:19;;;;;;;905.43;828.33;;;11.70;99.90;;;;;;5036208;28;20472;-83
2022/04/14 01:06:47;;;;;;;896.60;820.50;;;11.70;99.90;;;;;;5036327;28;20484;-82
2022/04/14 01:09:19;;;;;;;913.60;835.23;;;11.60;99.90;;;;;;5035255;28;20475;-82
2022/04/14 01:11:47;;;;;;;917.77;839.17;;;11.60;99.90;;;;;;5036905;28;20448;-83
2022/04/14 01:14:25;;;;;;;911.57;830.93;;;11.60;99.90;;;;;;5036349;28;20497;-83
2022/04/14 01:16:52;;;;;;;939.63;857.40;;;11.60;99.90;;;;;;5052750;28;20450;-83
2022/04/14 01:19:18;;;;;;;937.87;855.07;;;11.50;99.90;;;;;;5056125;28;20447;-83
2022/04/14 01:21:54;;;;;;;946.87;865.07;;;11.50;99.90;;;;;;5055695;28;20455;-83
2022/04/14 01:24:22;;;;;;;931.30;849.83;;;11.40;99.90;;;;;;5044863;28;20471;-83
2022/04/14 01:26:49;;;;;;;926.40;845.53;;;11.40;99.90;;;;;;5036635;28;20480;-83
2022/04/14 01:29:23;;;;;;;930.23;849.33;;;11.30;99.90;;;;;;5035293;28;20456;-83
2022/04/14 01:31:50;;;;;;;919.37;837.73;;;11.30;99.90;;;;;;5036253;28;20459;-83
2022/04/14 01:36:53;;;;;;;898.83;819.07;;;11.40;99.90;;;;;;5054468;28;20474;-80
2022/04/14 01:39:20;;;;;;;912.73;829.63;;;11.30;99.90;;;;;;5055691;28;20443;-80
2022/04/14 01:41:48;;;;;;;914.40;827.10;;;11.30;99.90;;;;;;5056970;28;20478;-80
2022/04/14 01:44:14;;;;;;;921.60;832.90;;;11.30;99.90;;;;;;5056450;28;20451;-80
2022/04/14 01:46:41;;;;;;;926.97;837.53;;;11.50;99.90;;;;;;5055122;28;20848;-80
2022/04/14 01:49:09;;;;;;;950.07;859.77;;;11.60;99.90;;;;;;5055491;28;20472;-82
2022/04/14 01:51:36;;;;;;;938.67;851.27;;;11.50;99.90;;;;;;5056442;28;20455;-80
2022/04/14 01:54:03;;;;;;;930.07;840.37;;;11.50;99.90;;;;;;5057539;28;20447;-80
2022/04/14 01:56:30;;;;;;;917.77;830.67;;;11.50;99.90;;;;;;5057018;28;20467;-81
2022/04/14 01:58:59;;;;;;;926.83;839.60;;;11.50;99.90;;;;;;5055864;28;20991;-80
2022/04/14 02:01:26;;;;;;;927.23;840.47;;;11.40;99.90;;;;;;5057489;28;20456;-80
2022/04/14 02:03:54;;;;;;;923.03;838.30;;;11.50;99.90;;;;;;5056369;28;20459;-80
2022/04/14 02:06:21;;;;;;;923.77;839.10;;;11.70;99.90;;;;;;5058056;28;20529;-80
2022/04/14 02:08:47;;;;;;;928.60;844.00;;;11.70;99.90;;;;;;5057057;28;20458;-81
2022/04/14 02:11:14;;;;;;;931.83;848.37;;;11.60;99.90;;;;;;5057668;28;20459;-81
2022/04/14 02:13:42;;;;;;;927.17;842.87;;;11.50;99.90;;;;;;5056834;28;20448;-81
2022/04/14 02:16:11;;;;;;;919.87;835.77;;;11.60;99.90;;;;;;5057495;28;20463;-80
2022/04/14 02:18:37;;;;;;;916.63;833.60;;;11.60;99.90;;;;;;5055249;28;20455;-80
2022/04/14 02:21:04;;;;;;;921.23;839.40;;;11.60;99.90;;;;;;5057164;28;20451;-81
2022/04/14 02:23:31;;;;;;;919.77;838.43;;;11.60;99.90;;;;;;5056566;28;20447;-80
2022/04/14 02:25:58;;;;;;;905.27;825.37;;;11.60;99.90;;;;;;5056308;28;20482;-82
2022/04/14 02:28:25;;;;;;;909.33;829.67;;;11.70;99.90;;;;;;5054257;28;20459;-80
2022/04/14 02:30:51;;;;;;;908.07;828.20;;;11.70;99.90;;;;;;5058955;28;20462;-80
2022/04/14 02:33:19;;;;;;;897.80;819.90;;;11.80;99.90;;;;;;5056357;28;20462;-81
2022/04/14 02:35:46;;;;;;;909.60;833.23;;;11.60;99.90;;;;;;5059101;28;20482;-78
2022/04/14 02:38:13;;;;;;;912.17;835.37;;;11.70;99.90;;;;;;5056944;28;20447;-81
2022/04/14 02:40:40;;;;;;;912.53;836.63;;;11.70;99.90;;;;;;5069277;28;20453;-80
2022/04/14 02:43:07;;;;;;;895.07;819.27;;;11.60;99.90;;;;;;5081094;28;20517;-82
2022/04/14 02:45:34;;;;;;;896.67;821.10;;;11.70;99.90;;;;;;5075148;28;20481;-81
2022/04/14 02:48:00;;;;;;;896.67;822.07;;;11.70;99.90;;;;;;5057790;28;20488;-81
2022/04/14 02:50:28;;;;;;;884.23;810.00;;;11.70;99.90;;;;;;5076889;28;20457;-80
2022/04/14 02:52:55;;;;;;;890.13;816.47;;;11.70;99.90;;;;;;5079482;28;20450;-77
2022/04/14 02:55:22;;;;;;;875.70;802.70;;;11.70;99.90;;;;;;5071242;28;20471;-78
2022/04/14 02:57:50;;;;;;;877.70;805.20;;;11.60;99.90;;;;;;5061187;28;20830;-81
2022/04/14 03:00:17;;;;;;;872.00;799.30;;;11.70;99.90;;;;;;5068818;28;20451;-81
2022/04/14 03:02:44;;;;;;;875.43;803.80;;;11.70;99.90;;;;;;5059171;28;20458;-83
2022/04/14 03:05:11;;;;;;;869.90;799.30;;;11.60;99.90;;;;;;5060441;28;20478;-82
2022/04/14 03:07:39;;;;;;;870.30;801.20;;;11.60;99.90;;;;;;5061349;28;20475;-82
2022/04/14 03:10:07;;;;;;;860.97;792.17;;;11.60;99.90;;;;;;5058535;28;20463;-82
2022/04/14 03:12:41;;;;;;;870.03;799.10;;;11.60;99.90;;;;;;5061061;28;20867;-81
2022/04/14 03:15:08;;;;;;;867.63;797.57;;;11.60;99.90;;;;;;5070276;28;20471;-83
2022/04/14 03:17:35;;;;;;;882.80;810.00;;;11.60;99.90;;;;;;5075224;28;20470;-81
2022/04/14 03:20:02;;;;;;;862.10;789.63;;;11.40;99.90;;;;;;5061736;28;20455;-81
2022/04/14 03:22:33;;;;;;;885.87;810.33;;;11.50;99.90;;;;;;5059293;28;21034;-82
2022/04/14 03:25:02;;;;;;;902.50;822.50;;;11.40;99.90;;;;;;5063527;28;20485;-82
2022/04/14 03:27:28;;;;;;;894.90;815.03;;;11.50;99.90;;;;;;5061969;28;20479;-81
2022/04/14 03:29:56;;;;;;;908.83;827.23;;;11.40;99.90;;;;;;5060585;28;20456;-81
2022/04/14 03:32:24;;;;;;;901.17;817.17;;;11.50;99.90;;;;;;5061937;28;20458;-81
2022/04/14 03:34:51;;;;;;;906.97;820.57;;;11.40;99.90;;;;;;5062977;28;20570;-81
2022/04/14 03:37:18;;;;;;;916.53;827.60;;;11.60;99.90;;;;;;5060148;28;20459;-82
2022/04/14 03:39:44;;;;;;;907.87;817.93;;;11.40;99.90;;;;;;5061859;28;20451;-81
2022/04/14 03:42:13;;;;;;;898.40;811.50;;;11.60;99.90;;;;;;5061765;28;20447;-82
2022/04/14 03:44:39;;;;;;;884.57;798.07;;;11.50;99.90;;;;;;5058945;28;20474;-81
2022/04/14 03:47:07;;;;;;;886.30;799.30;;;11.40;99.90;;;;;;5082296;28;20486;-80
2022/04/14 03:49:34;;;;;;;891.13;805.30;;;11.40;99.90;;;;;;5078149;28;20828;-80
2022/04/14 03:52:00;;;;;;;897.50;807.83;;;11.40;99.90;;;;;;5064011;28;20459;-81
2022/04/14 03:54:27;;;;;;;894.63;802.10;;;11.40;99.90;;;;;;5063183;28;20462;-81
2022/04/14 03:56:54;;;;;;;878.63;789.03;;;11.20;99.90;;;;;;5060430;28;20444;-81
2022/04/14 03:59:22;;;;;;;887.10;793.73;;;11.30;99.90;;;;;;5058518;28;20458;-81
2022/04/14 04:01:49;;;;;;;874.47;782.83;;;11.30;99.90;;;;;;5062850;28;20948;-80
2022/04/14 04:04:15;;;;;;;886.27;790.07;;;11.30;99.90;;;;;;5062152;28;20459;-80
2022/04/14 04:06:43;;;;;;;869.93;774.10;;;11.20;99.90;;;;;;5059449;28;20558;-80
2022/04/14 04:09:10;;;;;;;863.07;767.53;;;11.30;99.90;;;;;;5061010;28;20466;-81
2022/04/14 04:11:36;;;;;;;884.13;786.67;;;11.30;99.90;;;;;;5060473;28;20463;-81
2022/04/14 04:14:03;;;;;;;876.80;762.10;;;11.40;99.90;;;;;;5056584;28;20456;-81
2022/04/14 04:16:31;;;;;;;868.73;772.50;;;11.30;99.90;;;;;;5058187;28;20471;-81
2022/04/14 04:18:58;;;;;;;882.60;787.37;;;11.20;99.90;;;;;;5060688;28;20484;-82
2022/04/14 04:21:25;;;;;;;864.80;769.00;;;11.30;99.90;;;;;;5060690;28;20458;-80
2022/04/14 04:23:52;;;;;;;867.17;766.57;;;11.40;99.90;;;;;;5060657;28;20522;-81
2022/04/14 04:26:18;;;;;;;877.00;780.20;;;11.30;99.90;;;;;;5059146;28;20478;-81
2022/04/14 04:28:45;;;;;;;875.57;779.13;;;11.10;99.90;;;;;;5048882;28;20447;-82
2022/04/14 04:31:12;;;;;;;899.00;773.07;;;11.20;99.90;;;;;;5058577;28;20447;-80
2022/04/14 04:33:40;;;;;;;914.70;795.97;;;11.10;99.90;;;;;;5058161;28;20463;-81
2022/04/14 04:36:07;;;;;;;888.83;773.67;;;11.20;99.90;;;;;;5058080;28;20995;-81
2022/04/14 04:38:34;;;;;;;895.43;782.87;;;11.10;99.90;;;;;;5059345;28;20448;-81
2022/04/14 04:41:19;;;;;;;;;;;;;;;;;;;;;
2022/04/14 04:43:46;;;;;;;892.57;794.33;;;11.10;99.90;;;;;;5060569;28;20463;-81
2022/04/14 04:46:13;;;;;;;910.17;794.03;;;11.20;99.90;;;;;;5059159;28;20487;-81
2022/04/14 04:48:41;;;;;;;907.50;808.23;;;11.20;99.90;;;;;;5057565;28;20462;-81
2022/04/14 04:51:07;;;;;;;908.40;778.77;;;11.30;99.90;;;;;;5058891;28;20454;-80
2022/04/14 04:53:34;;;;;;;892.67;793.80;;;11.00;99.90;;;;;;5058780;28;20455;-81
2022/04/14 04:56:01;;;;;;;872.17;775.57;;;11.10;99.90;;;;;;5058062;28;20463;-80
2022/04/14 04:58:27;;;;;;;878.73;783.33;;;11.10;99.90;;;;;;5057436;28;20967;-80
2022/04/14 05:00:54;;;;;;;865.67;773.03;;;11.10;99.90;;;;;;5058354;28;20451;-80
2022/04/14 05:03:22;;;;;;;859.60;767.03;;;11.00;99.90;;;;;;5059634;28;20444;-81
2022/04/14 05:05:50;;;;;;;865.87;773.57;;;11.00;99.90;;;;;;5055269;28;20891;-81
2022/04/14 05:08:17;;;;;;;867.53;776.10;;;11.00;99.90;;;;;;5055553;28;20463;-81
2022/04/14 05:10:43;;;;;;;859.77;766.83;;;11.00;99.90;;;;;;5055671;28;20967;-79
2022/04/14 05:13:10;;;;;;;877.47;780.37;;;11.10;99.90;;;;;;5059245;28;20455;-81
2022/04/14 05:15:37;;;;;;;865.70;770.23;;;11.00;99.90;;;;;;5057202;28;20867;-80
2022/04/14 05:18:03;;;;;;;872.70;776.57;;;11.00;99.90;;;;;;5057255;28;20830;-81
2022/04/14 05:20:31;;;;;;;888.57;774.73;;;11.00;99.90;;;;;;5057718;28;20451;-82
2022/04/14 05:22:59;;;;;;;889.27;775.30;;;11.00;99.90;;;;;;5055003;28;21042;-80
2022/04/14 05:25:26;;;;;;;871.83;769.67;;;10.90;99.90;;;;;;5056955;28;20471;-80
2022/04/14 05:27:52;;;;;;;867.10;771.00;;;10.90;99.90;;;;;;5059210;28;20851;-82
2022/04/14 05:30:19;;;;;;;880.33;768.20;;;11.00;99.90;;;;;;5058680;28;20447;-81
2022/04/14 05:32:46;;;;;;;861.07;762.93;;;11.10;99.90;;;;;;5059752;28;20459;-81
2022/04/14 05:35:13;;;;;;;866.40;770.90;;;11.00;99.90;;;;;;5060547;28;20475;-81
2022/04/14 05:37:39;;;;;;;878.53;783.83;;;11.10;99.90;;;;;;5061334;28;20444;-80
2022/04/14 05:40:09;;;;;;;856.63;762.97;;;11.10;99.90;;;;;;5060569;28;20447;-81
2022/04/14 05:42:36;;;;;;;857.40;764.53;;;11.10;99.90;;;;;;5060920;28;20454;-82
2022/04/14 05:45:04;;;;;;;857.90;764.60;;;11.10;99.90;;;;;;5057956;28;20467;-79
2022/04/14 05:47:30;;;;;;;855.13;760.20;;;11.10;99.90;;;;;;5061853;28;20475;-79
2022/04/14 05:49:57;;;;;;;856.67;756.57;;;11.20;99.90;;;;;;5061734;28;20459;-80
2022/04/14 05:52:24;;;;;;;853.60;754.73;;;11.10;99.90;;;;;;5062858;28;20447;-80
2022/04/14 05:54:50;;;;;;;860.20;750.13;;;11.20;99.90;;;;;;5064881;28;20832;-80
2022/04/14 05:57:22;;;;;;;851.10;757.33;;;11.20;99.90;;;;;;5056663;28;20455;-80
2022/04/14 05:59:48;;;;;;;848.53;756.83;;;11.20;99.90;;;;;;5057292;28;20458;-81
2022/04/14 06:02:17;;;;;;;839.87;747.27;;;11.30;99.90;;;;;;5079242;28;20465;-79
2022/04/14 06:04:44;;;;;;;845.30;753.10;;;11.40;99.90;;;;;;5070028;28;20463;-80
2022/04/14 06:07:10;;;;;;;837.20;745.03;;;11.40;99.90;;;;;;5062664;28;20478;-81
2022/04/14 06:09:37;;;;;;;844.50;753.43;;;11.50;99.90;;;;;;5059815;28;20952;-81
2022/04/14 06:12:04;;;;;;;838.67;750.10;;;11.50;99.90;;;;;;5057259;28;20952;-81
2022/04/14 06:14:33;;;;;;;825.67;736.97;;;11.60;99.90;;;;;;5058753;28;20454;-82
2022/04/14 06:17:00;;;;;;;824.20;738.60;;;11.70;99.90;;;;;;5058570;28;20554;-81
2022/04/14 06:19:27;;;;;;;832.77;748.27;;;11.70;99.90;;;;;;5056346;28;20838;-81
2022/04/14 06:21:53;;;;;;;824.93;742.30;;;11.90;99.90;;;;;;5059134;28;20459;-82
2022/04/14 06:24:20;;;;;;;825.87;743.87;;;11.80;99.90;;;;;;5055778;28;20447;-81
2022/04/14 06:26:48;;;;;;;823.97;740.00;;;11.80;99.90;;;;;;5057811;28;20494;-82
2022/04/14 06:29:15;;;;;;;827.07;744.33;;;11.90;99.90;;;;;;5057058;28;20463;-81
2022/04/14 06:31:43;;;;;;;816.43;738.40;;;12.00;99.90;;;;;;5057768;28;20462;-80
2022/04/14 06:34:10;;;;;;;792.43;718.30;;;12.30;99.90;;;;;;5057330;28;20451;-81
2022/04/14 06:36:36;;;;;;;792.70;719.17;;;12.30;99.90;;;;;;5057647;28;20479;-80
2022/04/14 06:39:03;;;;;;;781.30;710.53;;;12.40;99.90;;;;;;5057191;28;20454;-81
2022/04/14 06:41:30;;;;;;;779.73;708.73;;;12.40;99.90;;;;;;5057068;28;20451;-81
2022/04/14 06:43:57;;;;;;;768.23;701.47;;;12.40;99.90;;;;;;5047927;28;20470;-83
2022/04/14 06:46:25;;;;;;;758.27;694.17;;;12.40;99.90;;;;;;5057572;28;20467;-81
2022/04/14 06:48:53;;;;;;;741.27;678.20;;;12.40;99.90;;;;;;5057799;28;20506;-81
2022/04/14 06:51:20;;;;;;;734.63;675.90;;;12.50;99.90;;;;;;5056355;28;20459;-80
2022/04/14 06:53:48;;;;;;;744.10;684.00;;;12.50;99.90;;;;;;5057345;28;20830;-79
2022/04/14 06:56:14;;;;;;;749.37;686.97;;;12.40;99.90;;;;;;5056295;28;20499;-82
2022/04/14 06:58:42;;;;;;;763.03;701.07;;;12.60;99.90;;;;;;5056845;28;20455;-82
2022/04/14 07:01:09;;;;;;;748.17;687.33;;;12.50;99.90;;;;;;5057790;28;20443;-82
2022/04/14 07:03:36;;;;;;;749.70;688.67;;;12.50;99.90;;;;;;5057460;28;20447;-83
2022/04/14 07:06:04;;;;;;;728.23;670.23;;;12.70;99.90;;;;;;5057395;28;20490;-82
2022/04/14 07:08:33;;;;;;;708.33;653.20;;;12.70;99.90;;;;;;5057227;28;20850;-81
2022/04/14 07:11:01;;;;;;;693.33;642.07;;;12.80;99.90;;;;;;5056573;28;20448;-82
2022/04/14 07:13:27;;;;;;;675.17;628.73;;;12.80;99.90;;;;;;5057537;28;20463;-81
2022/04/14 07:15:55;;;;;;;664.93;620.30;;;12.70;99.90;;;;;;5058470;28;20478;-82
2022/04/14 07:18:22;;;;;;;684.93;638.63;;;12.90;99.90;;;;;;5076428;28;20442;-82
2022/04/14 07:20:49;;;;;;;658.67;616.50;;;12.90;99.90;;;;;;5059576;28;20491;-82
2022/04/14 07:23:17;;;;;;;646.87;608.70;;;12.90;99.90;;;;;;5057811;28;20448;-82
2022/04/14 07:25:44;;;;;;;650.30;612.80;;;12.80;99.90;;;;;;5056991;28;20472;-81
2022/04/14 07:28:11;;;;;;;630.30;596.00;;;12.90;99.90;;;;;;5057758;28;20475;-82
2022/04/14 07:30:39;;;;;;;553.43;527.47;;;13.00;99.90;;;;;;5058681;28;20458;-82
2022/04/14 07:33:07;;;;;;;628.97;595.47;;;12.90;99.90;;;;;;5057762;28;20452;-82
2022/04/14 07:35:34;;;;;;;635.13;600.57;;;13.10;99.90;;;;;;5092148;22;20493;-84
2022/04/14 07:38:00;;;;;;;545.30;520.80;;;13.10;99.90;;;;;;5115799;28;20953;-84
2022/04/14 07:40:29;;;;;;;590.00;562.20;;;13.20;99.90;;;;;;5112353;28;20456;-83
2022/04/14 07:42:57;;;;;;;485.47;464.83;;;13.30;99.90;;;;;;5112520;28;20487;-83
2022/04/14 07:45:24;;;;;;;617.37;586.17;;;13.40;99.90;;;;;;5111665;28;20505;-83
2022/04/14 07:47:51;;;;;;;420.53;403.53;;;13.50;99.90;;;;;;5100373;28;20842;-83
2022/04/14 07:50:20;;;;;;;314.47;302.90;;;13.50;99.90;;;;;;5105232;28;20452;-83
2022/04/14 07:52:48;;;;;;;371.50;357.23;;;13.50;99.90;;;;;;5100163;28;20518;-83
2022/04/14 07:55:19;;;;;;;395.90;380.60;;;13.50;99.90;;;;;;5101632;28;20552;-83
2022/04/14 07:57:47;;;;;;;200.83;192.83;;;13.70;99.90;;;;;;5099786;28;20446;-83
2022/04/14 08:00:15;;;;;;;172.13;164.93;;;13.90;99.90;;;;;;5102365;28;20941;-84
2022/04/14 08:02:54;;;;;;;30.13;23.47;;;14.30;99.90;;;;;;5114026;28;20821;-84
2022/04/14 08:05:22;;;;;;;22.50;17.53;;;14.60;99.50;;;;;;5099042;28;20552;-83
2022/04/14 08:07:49;;;;;;;23.87;16.93;;;14.90;94.80;;;;;;5115920;28;20464;-84
2022/04/14 08:10:16;;;;;;;21.30;15.27;;;15.30;92.30;;;;;;5110281;28;20463;-84
2022/04/14 08:12:42;;;;;;;22.37;16.70;;;15.50;88.30;;;;;;5103612;28;20456;-83
2022/04/14 08:15:12;;;;;;;21.33;16.60;;;15.90;91.60;;;;;;5098318;28;20456;-83
2022/04/14 08:17:40;;;;;;;22.23;16.23;;;16.10;87.20;;;;;;5108048;28;20607;-84
2022/04/14 08:20:08;;;;;;;21.30;16.43;;;16.30;82.70;;;;;;5107786;28;20453;-81
2022/04/14 08:22:46;;;;;;;22.83;16.10;;;16.40;82.00;;;;;;5101157;28;20482;-82
2022/04/14 08:25:14;;;;;;;20.90;14.70;;;16.70;81.70;;;;;;5097772;28;20557;-81
2022/04/14 08:27:41;;;;;;;23.63;17.10;;;17.10;77.50;;;;;;5096445;28;20471;-85
2022/04/14 08:30:09;;;;;;;20.27;17.00;;;17.30;74.30;;;;;;5098084;28;20449;-85
2022/04/14 08:32:38;;;;;;;32.33;18.03;;;17.10;70.20;;;;;;5098419;28;20479;-84
2022/04/14 08:35:05;;;;;;;27.03;16.00;;;17.40;68.70;;;;;;5097630;28;20454;-84
2022/04/14 08:37:33;;;;;;;27.00;19.20;;;17.30;67.60;;;;;;5098656;28;20462;-85
2022/04/14 08:39:59;;;;;;;26.77;20.60;;;17.40;69.40;;;;;;5096973;28;20459;-86
2022/04/14 08:42:38;;;;;;;19.83;16.97;;;17.60;68.00;;;;;;5096527;28;20453;-85
2022/04/14 08:45:06;;;;;;;26.23;20.83;;;17.70;66.00;;;;;;5097288;28;20518;-86
2022/04/14 08:47:37;;;;;;;25.10;18.33;;;17.70;65.20;;;;;;5090684;28;20464;-85
2022/04/14 08:50:05;;;;;;;27.33;19.53;;;18.00;68.00;;;;;;5096039;28;20454;-86
2022/04/14 08:52:34;;;;;;;25.27;17.43;;;17.90;66.30;;;;;;5097878;28;20482;-86
2022/04/14 08:55:02;;;;;;;30.00;21.13;;;17.70;61.20;;;;;;5103175;28;20456;-82
2022/04/14 08:57:31;;;;;;;20.00;15.23;;;18.20;62.20;;;;;;5106661;28;20455;-85
2022/04/14 08:59:58;;;;;;;23.53;17.27;;;18.20;61.80;;;;;;5108199;28;20448;-83
2022/04/14 09:02:26;;;;;;;30.43;20.10;;;18.30;60.30;;;;;;5098529;28;20456;-83
2022/04/14 09:04:56;;;;;;;22.17;15.40;;;18.30;60.60;;;;;;5097766;28;20929;-83
2022/04/14 09:07:23;;;;;;;29.43;22.90;;;18.50;58.90;;;;;;5098042;28;20483;-83
2022/04/14 09:09:50;;;;;;;24.83;19.30;;;19.10;55.40;;;;;;5097668;28;20532;-83
2022/04/14 09:12:18;;;;;;;35.20;26.83;;;19.20;55.70;;;;;;5098311;28;20452;-83
2022/04/14 09:14:45;;;;;;;34.73;22.60;;;18.60;56.30;;;;;;5096472;28;20457;-83
2022/04/14 09:17:12;;;;;;;30.80;22.37;;;18.90;52.20;;;;;;5099002;28;20478;-83
2022/04/14 09:19:39;;;;;;;27.63;20.97;;;19.50;50.40;;;;;;5097710;28;20451;-83
2022/04/14 09:22:09;;;;;;;30.40;22.03;;;20.00;50.20;;;;;;5098875;28;20467;-83
2022/04/14 09:24:40;;;;;;;29.13;23.33;;;20.20;47.30;;;;;;5099101;28;20451;-83
2022/04/14 09:27:07;;;;;;;33.53;24.77;;;20.80;45.90;;;;;;5098783;28;20474;-83
2022/04/14 09:29:34;;;;;;;29.63;24.83;;;20.90;43.10;;;;;;5098214;28;20509;-84
2022/04/14 09:32:00;;;;;;;28.37;24.90;;;21.20;39.50;;;;;;5098451;28;20945;-84
2022/04/14 09:34:51;;;;;;;34.03;28.33;;;21.30;36.50;;;;;;5098470;28;20461;-84
2022/04/14 09:37:20;;;;;;;32.07;23.77;;;21.20;36.40;;;;;;5094327;28;21064;-83
2022/04/14 09:39:55;;;;;;;28.23;23.10;;;22.10;37.30;;;;;;5100348;28;20454;-83
2022/04/14 09:42:22;;;;;;;30.33;23.97;;;22.80;33.20;;;;;;5102927;28;20448;-83
2022/04/14 09:44:50;;;;;;;26.13;22.77;;;22.40;30.00;;;;;;5102018;28;20448;-83
2022/04/14 09:47:39;;;;;;;32.27;25.83;;;22.60;25.30;;;;;;5102129;28;20497;-84
2022/04/14 09:50:07;;;;;;;33.73;29.03;;;22.00;24.80;;;;;;5101604;28;20453;-83
2022/04/14 09:53:06;;;;;;;32.72;27.80;;;21.80;23.30;;;;;;5105094;28;20444;-84
2022/04/14 09:55:34;;;;;;;37.13;30.57;;;22.50;26.00;;;;;;5105547;28;20220;-86
2022/04/14 09:58:09;;;;;;;35.40;28.70;;;22.90;22.10;;;;;;5107337;28;20481;-86
2022/04/14 10:00:42;;;;;;;32.93;28.87;;;23.10;24.40;;;;;;5106404;28;20475;-85
2022/04/14 10:03:17;;;;;;;30.57;26.83;;;22.80;22.90;;;;;;5103349;28;21101;-83
2022/04/14 10:05:45;;;;;;;37.30;33.30;;;22.50;23.00;;;;;;5102116;28;20476;-83
2022/04/14 10:08:14;;;;;;;39.47;34.33;;;22.10;25.90;;;;;;5101257;28;20510;-86
2022/04/14 10:10:42;;;;;;;43.97;37.00;;;22.00;24.90;;;;;;5109760;28;20473;-86
2022/04/14 10:13:10;;;;;;;37.00;33.00;;;21.10;26.60;;;;;;5126361;28;20446;-85
2022/04/14 10:15:39;;;;;;;35.10;31.20;;;21.00;25.50;;;;;;5116348;28;20486;-85
2022/04/14 10:18:08;;;;;;;39.37;30.83;;;22.00;28.30;;;;;;5108347;28;20447;-86
2022/04/14 10:20:36;;;;;;;39.13;32.23;;;22.30;23.50;;;;;;5097667;28;20451;-85
2022/04/14 10:23:04;;;;;;;44.10;32.70;;;22.10;24.70;;;;;;5118528;28;20952;-85
2022/04/14 10:25:33;;;;;;;38.47;31.90;;;22.00;23.80;;;;;;5108710;28;20467;-84
2022/04/14 10:28:00;;;;;;;35.57;30.03;;;22.80;24.20;;;;;;5120723;28;20511;-85
2022/04/14 10:30:28;;;;;;;34.43;30.43;;;23.60;22.30;;;;;;5117976;28;20474;-84
2022/04/14 10:32:59;;;;;;;38.90;31.07;;;22.40;21.40;;;;;;5113232;28;20454;-83
2022/04/14 10:35:27;;;;;;;36.70;31.77;;;22.50;24.10;;;;;;5097098;28;20492;-82
2022/04/14 10:38:05;;;;;;;39.03;34.67;;;21.90;21.60;;;;;;5099052;28;20942;-84
2022/04/14 10:40:36;;;;;;;35.40;31.17;;;21.40;23.00;;;;;;5097925;28;20449;-84
2022/04/14 10:43:06;;;;;;;37.67;30.60;;;21.40;26.60;;;;;;5106634;28;20452;-82
2022/04/14 10:45:47;;;;;;;41.43;32.83;;;20.80;27.90;;;;;;5119853;28;20470;-82
2022/04/14 10:48:27;;;;;;;43.60;34.47;;;21.50;27.00;;;;;;5116958;28;20477;-79
2022/04/14 10:51:19;;;;;;;35.47;27.67;;;22.20;25.50;;;;;;5114222;28;20505;-83
2022/04/14 10:53:50;;;;;;;34.07;30.07;;;22.30;23.60;;;;;;5102681;28;20448;-85
2022/04/14 10:56:47;;;;;;;32.73;26.13;;;21.90;23.80;;;;;;5109555;28;20539;-81
2022/04/14 10:59:15;;;;;;;31.03;25.37;;;22.00;21.10;;;;;;5101411;28;20441;-82
2022/04/14 11:02:05;;;;;;;29.33;24.13;;;22.40;20.60;;;;;;5100852;28;20450;-84
2022/04/14 11:04:37;;;;;;;32.47;28.97;;;23.00;17.90;;;;;;5106030;28;20536;-85
2022/04/14 11:07:11;;;;;;;31.10;24.13;;;23.70;14.90;;;;;;5117719;28;20473;-84
2022/04/14 11:09:53;;;;;;;29.57;25.90;;;24.40;13.30;;;;;;5104799;28;20465;-81
2022/04/14 11:12:23;;;;;;;28.30;22.27;;;25.60;10.60;;;;;;5116220;28;20859;-82
2022/04/14 11:14:52;;;;;;;31.13;26.83;;;25.80;10.90;;;;;;5107711;28;20945;-80
2022/04/14 11:18:00;;;;;;;30.80;22.43;;;25.70;5.90;;;;;;5104992;28;20836;-79
2022/04/14 11:20:56;;;;;;;28.00;20.40;;;25.40;7.50;;;;;;5118677;28;20458;-78
2022/04/14 11:23:28;;;;;;;24.80;18.50;;;26.20;7.30;;;;;;5114068;28;20606;-79
2022/04/14 11:26:08;;;;;;;22.60;19.70;;;27.40;3.40;;;;;;5114732;28;20469;-79
2022/04/14 11:28:38;;;;;;;26.63;23.50;;;27.60;1.00;;;;;;5097497;28;20897;-78
2022/04/14 11:31:23;;;;;;;25.37;22.67;;;26.80;3.70;;;;;;5100951;28;20449;-81
2022/04/14 11:33:51;;;;;;;32.07;28.67;;;24.70;7.90;;;;;;5098270;28;20813;-82
2022/04/14 11:36:19;;;;;;;28.40;25.20;;;23.80;12.30;;;;;;5108352;28;20483;-83
2022/04/14 11:39:00;;;;;;;27.77;24.77;;;23.10;13.50;;;;;;5107372;28;20445;-84
2022/04/14 11:41:38;;;;;;;29.50;21.60;;;22.30;13.90;;;;;;5105481;28;20452;-83
2022/04/14 11:44:08;;;;;;;26.40;22.10;;;21.50;15.30;;;;;;5113827;28;20542;-82
2022/04/14 11:46:38;;;;;;;31.87;25.77;;;20.80;18.50;;;;;;5108191;28;20468;-84
2022/04/14 11:49:05;;;;;;;23.60;18.93;;;20.60;23.40;;;;;;5096398;28;20481;-83
2022/04/14 11:51:32;;;;;;;23.60;20.47;;;20.50;18.00;;;;;;5104364;28;20841;-81
2022/04/14 11:53:59;;;;;;;23.60;18.40;;;21.10;20.50;;;;;;5101231;28;20454;-81
2022/04/14 11:56:26;;;;;;;30.30;23.03;;;21.70;18.40;;;;;;5088929;28;20470;-82
2022/04/14 11:58:54;;;;;;;24.03;21.03;;;22.50;18.00;;;;;;5095976;28;20443;-82
2022/04/14 12:01:22;;;;;;;24.00;21.00;;;24.10;15.10;;;;;;5095422;28;20456;-81
2022/04/14 12:03:49;;;;;;;22.70;18.40;;;25.10;11.80;;;;;;5098721;28;20461;-82
2022/04/14 12:06:18;;;;;;;22.20;17.80;;;24.20;7.60;;;;;;5101821;28;20829;-82
2022/04/14 12:09:02;;;;;;;18.40;15.50;;;25.10;8.20;;;;;;5096517;28;20478;-82
2022/04/14 12:11:30;;;;;;;17.53;13.50;;;24.80;6.10;;;;;;5112097;28;20444;-82
2022/04/14 12:13:58;;;;;;;26.47;17.13;;;25.60;6.00;;;;;;5099177;28;20445;-80
2022/04/14 12:16:33;;;;;;;22.20;19.57;;;24.80;2.60;;;;;;5105031;28;20888;-80
2022/04/14 12:19:02;;;;;;;22.10;18.77;;;25.40;4.90;;;;;;5112240;28;20441;-82
2022/04/14 12:21:29;;;;;;;18.17;15.60;;;25.80;1.00;;;;;;5104320;28;20997;-83
2022/04/14 12:23:59;;;;;;;15.40;11.83;;;25.90;1.00;;;;;;5100449;28;20515;-83
2022/04/14 12:26:28;;;;;;;14.00;11.33;;;24.60;1.00;;;;;;5096643;28;20465;-81